createdAt,value
2022-09-01T00:00:02.802Z,17.00
2022-09-01T00:02:31.014Z,16.90
2022-09-01T00:04:59.137Z,16.90
2022-09-01T00:07:30.661Z,16.90
2022-09-01T00:09:59.482Z,16.80
2022-09-01T00:12:27.574Z,16.80
2022-09-01T00:14:54.767Z,16.80
2022-09-01T00:17:22.747Z,16.80
2022-09-01T00:19:49.788Z,16.90
2022-09-01T00:22:16.834Z,16.80
2022-09-01T00:24:43.821Z,16.80
2022-09-01T00:27:10.949Z,16.80
2022-09-01T00:29:38.040Z,16.80
2022-09-01T00:32:13.597Z,16.80
2022-09-01T00:34:40.717Z,16.80
2022-09-01T00:37:08.280Z,16.80
2022-09-01T00:39:35.791Z,16.80
2022-09-01T00:42:04.296Z,16.90
2022-09-01T00:44:31.839Z,16.90
2022-09-01T00:46:59.931Z,16.90
2022-09-01T00:49:29.811Z,16.90
2022-09-01T00:52:06.920Z,16.90
2022-09-01T00:54:40.026Z,16.90
2022-09-01T00:57:09.870Z,16.90
2022-09-01T00:59:43.739Z,16.90
2022-09-01T01:02:11.559Z,16.90
2022-09-01T01:04:41.239Z,16.80
2022-09-01T01:07:09.469Z,16.80
2022-09-01T01:09:41.812Z,16.80
2022-09-01T01:12:11.999Z,16.80
2022-09-01T01:14:40.154Z,16.80
2022-09-01T01:17:07.288Z,16.90
2022-09-01T01:20:02.405Z,16.90
2022-09-01T01:22:58.683Z,16.90
2022-09-01T01:25:26.308Z,16.90
2022-09-01T01:28:03.793Z,17.00
2022-09-01T01:30:35.854Z,17.00
2022-09-01T01:33:04.312Z,17.00
2022-09-01T01:35:34.015Z,17.00
2022-09-01T01:38:02.695Z,17.00
2022-09-01T01:40:31.037Z,17.00
2022-09-01T01:42:58.159Z,17.00
2022-09-01T01:45:26.156Z,17.00
2022-09-01T01:47:54.926Z,17.00
2022-09-01T01:50:34.024Z,17.00
2022-09-01T01:53:03.035Z,17.00
2022-09-01T01:55:38.965Z,17.00
2022-09-01T01:58:08.278Z,17.00
2022-09-01T02:00:35.327Z,17.00
2022-09-01T02:03:02.678Z,17.00
2022-09-01T02:05:32.965Z,17.00
2022-09-01T02:08:09.355Z,17.00
2022-09-01T02:10:42.286Z,17.00
2022-09-01T02:13:16.492Z,17.00
2022-09-01T02:15:47.846Z,17.00
2022-09-01T02:18:19.679Z,17.00
2022-09-01T02:20:49.602Z,16.90
2022-09-01T02:23:23.410Z,16.90
2022-09-01T02:26:14.985Z,17.00
2022-09-01T02:28:42.950Z,16.90
2022-09-01T02:31:11.662Z,16.90
2022-09-01T02:33:40.316Z,16.90
2022-09-01T02:36:16.351Z,16.90
2022-09-01T02:38:46.770Z,16.90
2022-09-01T02:41:23.468Z,16.90
2022-09-01T02:43:51.228Z,16.90
2022-09-01T02:46:24.660Z,16.80
2022-09-01T02:48:53.276Z,16.80
2022-09-01T02:51:25.957Z,16.90
2022-09-01T02:53:53.349Z,16.90
2022-09-01T02:56:24.972Z,16.90
2022-09-01T02:58:53.831Z,16.90
2022-09-01T03:01:30.541Z,16.90
2022-09-01T03:04:01.937Z,16.90
2022-09-01T03:06:31.606Z,16.80
2022-09-01T03:09:00.383Z,16.90
2022-09-01T03:11:30.245Z,16.80
2022-09-01T03:13:57.473Z,16.80
2022-09-01T03:16:24.792Z,16.80
2022-09-01T03:18:53.012Z,16.80
2022-09-01T03:21:21.279Z,16.80
2022-09-01T03:23:49.492Z,16.80
2022-09-01T03:26:18.937Z,16.80
2022-09-01T03:28:47.158Z,16.80
2022-09-01T03:31:14.942Z,16.80
2022-09-01T03:33:42.791Z,16.80
2022-09-01T03:36:19.590Z,16.80
2022-09-01T03:38:51.821Z,16.80
2022-09-01T03:41:22.716Z,16.80
2022-09-01T03:43:50.310Z,16.80
2022-09-01T03:46:21.733Z,16.80
2022-09-01T03:48:52.063Z,16.80
2022-09-01T03:51:23.014Z,16.80
2022-09-01T03:53:54.593Z,16.80
2022-09-01T03:56:27.762Z,16.80
2022-09-01T03:58:57.242Z,16.80
2022-09-01T04:01:29.904Z,16.80
2022-09-01T04:03:58.355Z,16.70
2022-09-01T04:06:26.194Z,16.80
2022-09-01T04:09:02.848Z,16.80
2022-09-01T04:11:30.950Z,16.80
2022-09-01T04:13:58.266Z,16.80
2022-09-01T04:16:47.527Z,16.80
2022-09-01T04:19:20.832Z,16.80
2022-09-01T04:21:50.640Z,16.80
2022-09-01T04:24:19.258Z,16.80
2022-09-01T04:26:49.887Z,16.80
2022-09-01T04:29:24.280Z,16.80
2022-09-01T04:31:53.726Z,16.80
2022-09-01T04:34:22.690Z,16.80
2022-09-01T04:36:51.622Z,16.80
2022-09-01T04:39:22.283Z,16.80
2022-09-01T04:41:50.625Z,16.80
2022-09-01T04:44:19.521Z,16.90
2022-09-01T04:46:48.515Z,16.90
2022-09-01T04:49:22.329Z,17.00
2022-09-01T04:51:53.987Z,17.00
2022-09-01T04:54:23.205Z,17.00
2022-09-01T04:56:51.453Z,17.10
2022-09-01T04:59:22.243Z,17.10
2022-09-01T05:01:51.006Z,17.20
2022-09-01T05:04:27.534Z,17.30
2022-09-01T05:07:01.424Z,17.40
2022-09-01T05:09:35.916Z,17.40
2022-09-01T05:12:12.827Z,17.40
2022-09-01T05:14:47.273Z,17.30
2022-09-01T05:17:16.430Z,17.40
2022-09-01T05:19:47.839Z,17.40
2022-09-01T05:22:18.839Z,17.40
2022-09-01T05:24:45.927Z,17.30
2022-09-01T05:27:14.822Z,17.30
2022-09-01T05:29:41.919Z,17.20
2022-09-01T05:32:10.480Z,17.30
2022-09-01T05:34:39.359Z,17.30
2022-09-01T05:37:13.807Z,17.30
2022-09-01T05:39:40.891Z,17.30
2022-09-01T05:42:10.869Z,17.40
2022-09-01T05:44:44.538Z,17.40
2022-09-01T05:47:21.032Z,17.40
2022-09-01T05:49:50.037Z,17.50
2022-09-01T05:52:17.121Z,17.50
2022-09-01T05:54:44.268Z,17.60
2022-09-01T05:57:33.244Z,17.60
2022-09-01T05:59:58.381Z,17.60
2022-09-01T06:02:27.485Z,17.70
2022-09-01T06:04:57.103Z,17.70
2022-09-01T06:07:25.589Z,17.80
2022-09-01T06:09:53.862Z,17.80
2022-09-01T06:12:25.320Z,17.80
2022-09-01T06:14:54.800Z,17.80
2022-09-01T06:17:25.346Z,17.90
2022-09-01T06:19:56.186Z,17.90
2022-09-01T06:22:24.262Z,18.00
2022-09-01T06:24:59.432Z,18.00
2022-09-01T06:27:29.609Z,18.10
2022-09-01T06:29:58.511Z,18.10
2022-09-01T06:32:26.179Z,18.20
2022-09-01T06:34:53.391Z,18.20
2022-09-01T06:37:23.314Z,18.30
2022-09-01T06:39:51.009Z,18.30
2022-09-01T06:42:19.548Z,18.40
2022-09-01T06:44:46.510Z,18.40
2022-09-01T06:47:15.674Z,18.50
2022-09-01T06:49:43.120Z,18.60
2022-09-01T06:52:11.872Z,18.70
2022-09-01T06:54:39.757Z,18.70
2022-09-01T06:59:54.779Z,18.90
2022-09-01T07:02:27.136Z,18.90
2022-09-01T07:04:54.726Z,19.00
2022-09-01T07:10:25.714Z,19.00
2022-09-01T07:13:11.422Z,19.10
2022-09-01T07:18:31.036Z,19.10
2022-09-01T07:21:35.795Z,19.30
2022-09-01T07:24:07.864Z,19.30
2022-09-01T07:26:46.825Z,19.30
2022-09-01T07:29:14.329Z,19.60
2022-09-01T07:31:52.106Z,19.70
2022-09-01T07:34:39.518Z,19.70
2022-09-01T07:43:14.779Z,20.10
2022-09-01T07:45:48.091Z,20.10
2022-09-01T07:51:36.443Z,20.30
2022-09-01T07:54:05.275Z,20.40
2022-09-01T07:56:36.323Z,20.50
2022-09-01T07:59:08.480Z,20.60
2022-09-01T08:01:37.146Z,20.60
2022-09-01T08:04:04.452Z,20.60
2022-09-01T08:06:39.415Z,20.70
2022-09-01T08:09:11.429Z,20.90
2022-09-01T08:14:26.036Z,21.10
2022-09-01T08:16:53.599Z,21.10
2022-09-01T08:19:21.164Z,21.20
2022-09-01T08:21:48.108Z,21.30
2022-09-01T08:24:16.044Z,21.50
2022-09-01T08:26:43.155Z,21.70
2022-09-01T08:29:10.897Z,21.80
2022-09-01T08:31:38.083Z,22.00
2022-09-01T08:34:05.701Z,21.80
2022-09-01T08:36:35.403Z,22.00
2022-09-01T08:39:02.862Z,22.00
2022-09-01T08:41:55.878Z,22.20
2022-09-01T08:44:45.951Z,22.20
2022-09-01T08:47:17.205Z,22.10
2022-09-01T08:49:47.441Z,22.00
2022-09-01T08:52:37.281Z,22.00
2022-09-01T08:55:33.131Z,21.80
2022-09-01T08:58:01.386Z,21.80
2022-09-01T09:00:33.390Z,21.80
2022-09-01T09:03:07.742Z,21.80
2022-09-01T09:06:04.265Z,21.70
2022-09-01T09:08:58.223Z,21.90
2022-09-01T09:12:03.582Z,22.00
2022-09-01T09:14:43.385Z,22.00
2022-09-01T09:17:11.159Z,22.10
2022-09-01T09:19:43.710Z,22.30
2022-09-01T09:22:14.657Z,22.40
2022-09-01T09:24:52.590Z,22.40
2022-09-01T09:27:23.923Z,22.50
2022-09-01T09:29:57.338Z,22.40
2022-09-01T09:33:15.989Z,22.30
2022-09-01T09:35:35.661Z,22.30
2022-09-01T09:38:24.190Z,22.20
2022-09-01T09:41:16.585Z,22.10
2022-09-01T09:43:51.162Z,22.10
2022-09-01T09:46:33.049Z,21.90
2022-09-01T09:49:19.610Z,21.90
2022-09-01T09:52:16.466Z,21.90
2022-09-01T09:55:06.982Z,21.80
2022-09-01T09:57:41.405Z,21.70
2022-09-01T10:00:23.881Z,21.90
2022-09-01T10:02:58.570Z,22.00
2022-09-01T10:05:37.071Z,22.00
2022-09-01T10:08:13.122Z,22.00
2022-09-01T10:10:57.365Z,22.10
2022-09-01T10:13:32.683Z,22.10
2022-09-01T10:16:11.120Z,22.10
2022-09-01T10:18:42.035Z,22.20
2022-09-01T10:21:15.399Z,22.20
2022-09-01T10:23:43.517Z,22.40
2022-09-01T10:26:18.872Z,22.50
2022-09-01T10:29:24.192Z,22.50
2022-09-01T10:32:14.835Z,22.70
2022-09-01T10:34:42.173Z,23.10
2022-09-01T10:37:11.751Z,23.40
2022-09-01T10:40:20.172Z,23.60
2022-09-01T10:42:55.226Z,23.60
2022-09-01T10:45:24.232Z,23.70
2022-09-01T10:47:51.254Z,23.90
2022-09-01T10:50:35.412Z,23.90
2022-09-01T10:53:05.323Z,23.90
2022-09-01T10:55:45.531Z,24.10
2022-09-01T11:01:49.533Z,24.40
2022-09-01T11:04:30.703Z,24.60
2022-09-01T11:07:44.622Z,24.50
2022-09-01T11:10:13.714Z,24.20
2022-09-01T11:13:28.979Z,23.90
2022-09-01T11:16:00.360Z,24.10
2022-09-01T11:18:31.820Z,24.30
2022-09-01T11:21:26.216Z,24.50
2022-09-01T11:24:31.644Z,24.00
2022-09-01T11:26:58.820Z,23.50
2022-09-01T11:29:55.478Z,23.40
2022-09-01T11:32:31.775Z,23.60
2022-09-01T11:35:03.710Z,23.50
2022-09-01T11:37:33.739Z,23.40
2022-09-01T11:40:04.372Z,23.40
2022-09-01T11:42:45.785Z,23.30
2022-09-01T11:45:25.086Z,23.30
2022-09-01T11:47:57.491Z,23.20
2022-09-01T11:50:24.419Z,23.00
2022-09-01T11:53:05.379Z,23.20
2022-09-01T11:55:32.814Z,23.20
2022-09-01T11:58:00.697Z,23.60
2022-09-01T12:00:38.578Z,23.90
2022-09-01T12:03:23.162Z,24.20
2022-09-01T12:06:06.112Z,24.00
2022-09-01T12:08:39.471Z,23.80
2022-09-01T12:11:20.419Z,23.50
2022-09-01T12:14:05.637Z,23.30
2022-09-01T12:16:40.318Z,23.10
2022-09-01T12:19:07.946Z,22.90
2022-09-01T12:21:43.105Z,23.00
2022-09-01T12:24:23.138Z,23.30
2022-09-01T12:26:54.419Z,23.70
2022-09-01T12:29:23.258Z,24.00
2022-09-01T12:31:52.669Z,24.20
2022-09-01T12:34:35.855Z,24.70
2022-09-01T12:37:08.751Z,24.90
2022-09-01T12:39:40.913Z,25.30
2022-09-01T12:42:10.770Z,24.70
2022-09-01T12:44:38.058Z,24.20
2022-09-01T12:47:12.637Z,23.90
2022-09-01T12:49:50.687Z,23.50
2022-09-01T12:52:19.933Z,23.30
2022-09-01T12:54:51.640Z,23.20
2022-09-01T12:57:34.484Z,23.20
2022-09-01T13:00:10.694Z,23.10
2022-09-01T13:02:44.058Z,23.40
2022-09-01T13:05:21.810Z,23.70
2022-09-01T13:07:48.969Z,23.80
2022-09-01T13:10:16.488Z,23.90
2022-09-01T13:12:45.654Z,23.80
2022-09-01T13:17:41.721Z,23.90
2022-09-01T13:20:09.684Z,24.10
2022-09-01T13:22:37.760Z,24.20
2022-09-01T13:25:05.823Z,24.10
2022-09-01T13:27:32.987Z,24.10
2022-09-01T13:30:00.102Z,23.80
2022-09-01T13:32:27.212Z,23.70
2022-09-01T13:34:55.198Z,23.70
2022-09-01T13:37:22.535Z,23.60
2022-09-01T13:39:49.898Z,23.70
2022-09-01T13:42:17.765Z,23.80
2022-09-01T13:44:49.699Z,24.00
2022-09-01T13:47:35.568Z,24.00
2022-09-01T13:50:11.422Z,24.10
2022-09-01T13:52:42.045Z,24.30
2022-09-01T13:55:12.571Z,24.40
2022-09-01T13:57:39.871Z,24.50
2022-09-01T14:00:11.235Z,24.60
2022-09-01T14:02:49.430Z,24.50
2022-09-01T14:05:37.910Z,24.60
2022-09-01T14:08:07.278Z,24.90
2022-09-01T14:10:37.655Z,25.00
2022-09-01T14:13:04.644Z,24.90
2022-09-01T14:15:31.726Z,24.90
2022-09-01T14:17:58.869Z,24.70
2022-09-01T14:20:30.276Z,24.40
2022-09-01T14:23:00.305Z,24.10
2022-09-01T14:25:27.282Z,23.80
2022-09-01T14:27:54.379Z,23.70
2022-09-01T14:30:29.066Z,23.70
2022-09-01T14:32:59.786Z,23.80
2022-09-01T14:35:27.932Z,24.00
2022-09-01T14:37:55.963Z,24.00
2022-09-01T14:40:24.358Z,24.00
2022-09-01T14:42:53.267Z,24.10
2022-09-01T14:45:23.259Z,24.20
2022-09-01T14:47:54.246Z,24.30
2022-09-01T14:50:23.474Z,24.40
2022-09-01T14:52:57.119Z,24.30
2022-09-01T14:55:25.860Z,24.20
2022-09-01T14:57:54.621Z,24.20
2022-09-01T15:00:25.148Z,24.20
2022-09-01T15:02:53.869Z,24.20
2022-09-01T15:05:21.744Z,24.30
2022-09-01T15:07:48.728Z,24.30
2022-09-01T15:10:24.522Z,24.40
2022-09-01T15:12:54.935Z,24.40
2022-09-01T15:15:22.774Z,24.30
2022-09-01T15:17:50.182Z,24.10
2022-09-01T15:20:35.858Z,24.10
2022-09-01T15:23:03.193Z,24.10
2022-09-01T15:25:30.334Z,24.10
2022-09-01T15:27:57.332Z,24.00
2022-09-01T15:30:24.349Z,24.00
2022-09-01T15:32:53.324Z,23.90
2022-09-01T15:35:21.684Z,23.80
2022-09-01T15:37:49.660Z,23.70
2022-09-01T15:40:18.511Z,23.80
2022-09-01T15:42:45.871Z,23.80
2022-09-01T15:45:16.226Z,23.70
2022-09-01T15:47:45.626Z,23.80
2022-09-01T15:50:20.997Z,23.70
2022-09-01T15:53:12.133Z,23.70
2022-09-01T15:55:45.123Z,23.60
2022-09-01T15:58:15.212Z,23.50
2022-09-01T16:00:43.374Z,23.50
2022-09-01T16:03:10.642Z,23.40
2022-09-01T16:05:39.675Z,23.30
2022-09-01T16:08:09.898Z,23.10
2022-09-01T16:10:40.763Z,23.20
2022-09-01T16:13:08.491Z,23.20
2022-09-01T16:15:40.681Z,23.10
2022-09-01T16:18:23.710Z,23.10
2022-09-01T16:21:22.675Z,23.00
2022-09-01T16:23:52.016Z,23.00
2022-09-01T16:26:23.000Z,22.60
2022-09-01T16:28:53.801Z,22.30
2022-09-01T16:31:26.280Z,22.30
2022-09-01T16:33:56.422Z,22.30
2022-09-01T16:36:52.401Z,22.30
2022-09-01T16:39:24.359Z,22.30
2022-09-01T16:42:19.413Z,22.20
2022-09-01T16:45:04.074Z,22.10
2022-09-01T16:47:48.742Z,22.00
2022-09-01T16:50:33.021Z,21.90
2022-09-01T16:53:18.891Z,21.80
2022-09-01T16:56:11.118Z,21.70
2022-09-01T16:58:41.045Z,21.70
2022-09-01T17:01:33.453Z,21.50
2022-09-01T17:04:21.485Z,21.40
2022-09-01T17:06:51.594Z,21.20
2022-09-01T17:09:39.147Z,21.10
2022-09-01T17:12:27.836Z,21.00
2022-09-01T17:15:07.388Z,20.90
2022-09-01T17:17:47.113Z,20.80
2022-09-01T17:20:15.003Z,20.70
2022-09-01T17:22:50.987Z,20.60
2022-09-01T17:25:33.052Z,20.50
2022-09-01T17:28:20.915Z,20.40
2022-09-01T17:31:00.563Z,20.30
2022-09-01T17:33:50.552Z,20.20
2022-09-01T17:36:34.948Z,20.20
2022-09-01T17:39:11.147Z,20.10
2022-09-01T17:41:54.726Z,20.00
2022-09-01T17:44:30.325Z,19.90
2022-09-01T17:47:12.705Z,19.80
2022-09-01T17:50:05.686Z,19.70
2022-09-01T17:53:10.156Z,19.60
2022-09-01T17:55:43.022Z,19.60
2022-09-01T17:58:24.420Z,19.50
2022-09-01T18:01:01.849Z,19.40
2022-09-01T18:04:06.206Z,19.30
2022-09-01T18:06:45.070Z,19.30
2022-09-01T18:09:15.900Z,19.20
2022-09-01T18:11:55.850Z,19.10
2022-09-01T18:14:33.580Z,19.00
2022-09-01T18:17:23.959Z,18.90
2022-09-01T18:20:01.964Z,18.90
2022-09-01T18:22:36.514Z,18.80
2022-09-01T18:25:08.402Z,18.70
2022-09-01T18:27:36.942Z,18.70
2022-09-01T18:30:05.615Z,18.60
2022-09-01T18:32:38.106Z,18.50
2022-09-01T18:35:28.354Z,18.50
2022-09-01T18:38:09.472Z,18.40
2022-09-01T18:40:48.756Z,18.30
2022-09-01T18:43:43.024Z,18.20
2022-09-01T18:46:13.447Z,18.10
2022-09-01T18:49:03.798Z,18.10
2022-09-01T18:51:40.813Z,18.00
2022-09-01T18:54:22.669Z,17.90
2022-09-01T18:57:01.606Z,17.90
2022-09-01T18:59:37.074Z,17.80
2022-09-01T19:02:29.269Z,17.70
2022-09-01T19:05:00.609Z,17.70
2022-09-01T19:07:44.186Z,17.70
2022-09-01T19:10:38.496Z,17.70
2022-09-01T19:13:05.752Z,17.60
2022-09-01T19:15:45.541Z,17.60
2022-09-01T19:18:28.012Z,17.50
2022-09-01T19:21:23.188Z,17.50
2022-09-01T19:24:04.564Z,17.50
2022-09-01T19:26:55.007Z,17.40
2022-09-01T19:29:32.171Z,17.40
2022-09-01T19:32:08.693Z,17.30
2022-09-01T19:34:43.705Z,17.20
2022-09-01T19:37:11.402Z,17.20
2022-09-01T19:39:44.298Z,17.10
2022-09-01T19:42:14.591Z,17.10
2022-09-01T19:45:09.200Z,17.10
2022-09-01T19:48:15.280Z,17.10
2022-09-01T19:50:51.089Z,17.00
2022-09-01T19:53:40.446Z,17.00
2022-09-01T19:56:29.826Z,17.00
2022-09-01T19:59:28.608Z,16.90
2022-09-01T20:02:03.805Z,16.90
2022-09-01T20:04:55.715Z,16.90
2022-09-01T20:07:55.570Z,16.80
2022-09-01T20:10:31.566Z,16.80
2022-09-01T20:13:18.472Z,16.70
2022-09-01T20:16:04.322Z,16.70
2022-09-01T20:18:39.240Z,16.70
2022-09-01T20:21:17.605Z,16.60
2022-09-01T20:24:08.401Z,16.60
2022-09-01T20:26:45.584Z,16.50
2022-09-01T20:29:25.155Z,16.50
2022-09-01T20:31:56.501Z,16.50
2022-09-01T20:34:53.163Z,16.50
2022-09-01T20:37:32.684Z,16.40
2022-09-01T20:40:08.084Z,16.40
2022-09-01T20:42:48.874Z,16.30
2022-09-01T20:45:23.330Z,16.30
2022-09-01T20:48:03.177Z,16.20
2022-09-01T20:50:42.654Z,16.20
2022-09-01T20:53:24.872Z,16.20
2022-09-01T20:56:17.990Z,16.10
2022-09-01T21:01:28.881Z,16.10
2022-09-01T21:04:08.523Z,16.00
2022-09-01T21:06:57.961Z,16.00
2022-09-01T21:09:38.524Z,16.00
2022-09-01T21:12:16.009Z,16.00
2022-09-01T21:15:09.885Z,15.90
2022-09-01T21:17:55.639Z,15.90
2022-09-01T21:20:55.180Z,15.90
2022-09-01T21:23:22.728Z,15.90
2022-09-01T21:25:50.232Z,15.80
2022-09-01T21:28:21.601Z,15.80
2022-09-01T21:30:57.885Z,15.80
2022-09-01T21:33:28.411Z,15.70
2022-09-01T21:35:55.912Z,15.70
2022-09-01T21:38:23.311Z,15.60
2022-09-01T21:40:52.117Z,15.60
2022-09-01T21:43:26.418Z,15.60
2022-09-01T21:45:53.468Z,15.50
2022-09-01T21:48:21.125Z,15.40
2022-09-01T21:50:48.712Z,15.40
2022-09-01T21:53:16.481Z,15.30
2022-09-01T21:55:44.182Z,15.30
2022-09-01T21:58:11.239Z,15.20
2022-09-01T22:00:40.311Z,15.10
2022-09-01T22:03:08.676Z,15.10
2022-09-01T22:05:41.346Z,15.00
2022-09-01T22:08:13.404Z,15.00
2022-09-01T22:10:47.219Z,15.00
2022-09-01T22:13:15.906Z,15.00
2022-09-01T22:15:49.273Z,14.90
2022-09-01T22:18:17.283Z,14.90
2022-09-01T22:20:45.159Z,14.90
2022-09-01T22:23:14.579Z,14.90
2022-09-01T22:25:44.443Z,14.90
2022-09-01T22:28:12.040Z,14.90
2022-09-01T22:30:47.338Z,14.90
2022-09-01T22:33:16.107Z,14.80
2022-09-01T22:35:45.506Z,14.80
2022-09-01T22:38:13.195Z,14.80
2022-09-01T22:40:56.141Z,14.80
2022-09-01T22:43:24.700Z,14.90
2022-09-01T22:45:52.714Z,14.80
2022-09-01T22:48:21.937Z,14.80
2022-09-01T22:50:50.303Z,14.80
2022-09-01T22:53:19.536Z,14.70
2022-09-01T22:55:49.547Z,14.70
2022-09-01T22:58:17.673Z,14.60
2022-09-01T23:00:52.266Z,14.60
2022-09-01T23:03:20.702Z,14.50
2022-09-01T23:05:49.090Z,14.50
2022-09-01T23:08:17.303Z,14.40
2022-09-01T23:10:44.465Z,14.30
2022-09-01T23:13:11.483Z,14.20
2022-09-01T23:15:38.519Z,14.20
2022-09-01T23:18:05.753Z,14.20
2022-09-01T23:20:32.774Z,14.10
2022-09-01T23:23:01.039Z,14.10
2022-09-01T23:25:28.060Z,14.10
2022-09-01T23:27:55.513Z,14.00
2022-09-01T23:30:22.630Z,14.00
2022-09-01T23:32:49.663Z,14.00
2022-09-01T23:35:16.678Z,13.90
2022-09-01T23:37:43.781Z,13.90
2022-09-01T23:40:11.018Z,13.80
2022-09-01T23:42:38.203Z,13.80
2022-09-01T23:45:06.177Z,13.80
2022-09-01T23:47:33.226Z,13.80
2022-09-01T23:50:00.398Z,13.70
2022-09-01T23:52:27.386Z,13.70
2022-09-01T23:54:55.021Z,13.70
2022-09-01T23:57:21.988Z,13.60
2022-09-01T23:59:49.259Z,13.60
